Time;durP1;ratioP1;P1;durP2;ratioP2;P2;SDS_P1;SDS_P2;PMS_P1;PMS_P2;Temp;Humidity;BMP_temperature;BMP_pressure;BME280_temperature;BME280_humidity;BME280_pressure;Samples;Min_cycle;Max_cycle;Signal;HPM_P1;HPM_P2
2023/02/04 00:00:59;;;;;;;;;;;8.90;1.00;;;;;;5014795;28;19933;-79
2023/02/04 00:03:25;;;;;;;;;;;8.90;1.00;;;;;;5014701;28;19909;-80
2023/02/04 00:05:51;;;;;;;;;;;8.90;1.00;;;;;;5013385;28;19913;-80
2023/02/04 00:08:17;;;;;;;;;;;8.90;1.00;;;;;;5007084;28;19920;-80
2023/02/04 00:10:43;;;;;;;;;;;8.80;1.00;;;;;;5006812;28;19910;-81
2023/02/04 00:13:09;;;;;;;;;;;8.80;1.00;;;;;;5010401;28;19910;-80
2023/02/04 00:15:35;;;;;;;;;;;8.80;1.00;;;;;;5007460;28;19964;-80
2023/02/04 00:18:01;;;;;;;;;;;8.80;1.00;;;;;;5010729;28;19915;-78
2023/02/04 00:20:26;;;;;;;;;;;8.70;1.00;;;;;;5009984;28;20362;-78
2023/02/04 00:22:52;;;;;;;;;;;8.80;1.00;;;;;;5013195;28;19963;-79
2023/02/04 00:25:18;;;;;;;;;;;8.70;1.00;;;;;;5009556;28;19920;-79
2023/02/04 00:27:44;;;;;;;;;;;8.70;1.00;;;;;;5007631;28;20334;-80
2023/02/04 00:30:11;;;;;;;;;;;8.70;1.00;;;;;;5010966;28;19982;-79
2023/02/04 00:32:37;;;;;;;;;;;8.70;1.00;;;;;;5010773;28;19913;-79
2023/02/04 00:35:03;;;;;;;;;;;8.70;1.00;;;;;;5022011;28;19956;-79
2023/02/04 00:37:30;;;;;;;;;;;8.70;1.00;;;;;;5006206;28;19909;-78
2023/02/04 00:39:56;;;;;;;;;;;8.70;1.00;;;;;;5012977;28;19909;-80
2023/02/04 00:42:22;;;;;;;;;;;8.70;1.00;;;;;;5015638;28;19916;-79
2023/02/04 00:44:48;;;;;;;;;;;8.70;1.00;;;;;;5011010;28;19917;-79
2023/02/04 00:47:14;;;;;;;;;;;8.70;1.00;;;;;;5011220;28;20398;-79
2023/02/04 00:49:40;;;;;;;;;;;8.60;1.00;;;;;;5005748;28;20278;-79
2023/02/04 00:52:06;;;;;;;;;;;8.60;1.00;;;;;;5016293;28;19920;-79
2023/02/04 00:54:32;;;;;;;;;;;8.60;1.00;;;;;;4998633;28;19941;-80
2023/02/04 00:56:58;;;;;;;;;;;8.60;1.00;;;;;;5008934;28;19948;-80
2023/02/04 00:59:24;;;;;;;;;;;8.60;1.00;;;;;;5010337;28;19933;-79
2023/02/04 01:01:50;;;;;;;;;;;8.50;1.00;;;;;;5010995;28;19918;-79
2023/02/04 01:04:16;;;;;;;;;;;8.50;1.00;;;;;;5011615;28;19921;-78
2023/02/04 01:06:43;;;;;;;;;;;8.50;1.00;;;;;;5006143;28;19910;-79
2023/02/04 01:09:09;;;;;;;;;;;8.50;1.00;;;;;;5012276;28;19912;-79
2023/02/04 01:11:35;;;;;;;;;;;8.50;1.00;;;;;;5008162;28;19910;-79
2023/02/04 01:14:01;;;;;;;;;;;8.40;1.00;;;;;;5008598;28;19905;-79
2023/02/04 01:16:27;;;;;;;;;;;8.40;1.00;;;;;;5009855;28;19924;-79
2023/02/04 01:18:54;;;;;;;;;;;8.40;1.00;;;;;;5009800;28;20343;-79
2023/02/04 01:21:22;;;;;;;;;;;8.40;1.00;;;;;;5011304;28;19914;-79
2023/02/04 01:23:49;;;;;;;;;;;8.40;1.00;;;;;;5008396;28;20489;-79
2023/02/04 01:26:15;;;;;;;;;;;8.40;1.00;;;;;;5006774;28;19932;-78
2023/02/04 01:28:41;;;;;;;;;;;8.40;1.00;;;;;;5006558;28;20004;-79
2023/02/04 01:31:07;;;;;;;;;;;8.40;1.00;;;;;;5011587;28;20096;-79
2023/02/04 01:33:33;;;;;;;;;;;8.30;1.00;;;;;;5000403;28;19905;-78
2023/02/04 01:35:59;;;;;;;;;;;8.40;1.00;;;;;;5005329;28;20036;-82
2023/02/04 01:38:25;;;;;;;;;;;8.50;1.00;;;;;;5010360;28;19913;-82
2023/02/04 01:40:51;;;;;;;;;;;8.50;1.00;;;;;;5006845;28;19909;-76
2023/02/04 01:43:18;;;;;;;;;;;8.50;99.90;;;;;;5013265;28;20355;-79
2023/02/04 01:45:45;;;;;;;;;;;8.60;99.90;;;;;;5014042;28;20278;-78
2023/02/04 01:48:13;;;;;;;;;;;8.70;99.90;;;;;;5006894;28;19916;-80
2023/02/04 01:50:39;;;;;;;;;;;8.70;99.90;;;;;;5008150;28;19920;-83
2023/02/04 01:53:04;;;;;;;;;;;8.70;99.90;;;;;;5006776;28;20355;-78
2023/02/04 01:55:32;;;;;;;;;;;8.70;99.90;;;;;;5008597;28;19909;-78
2023/02/04 01:57:59;;;;;;;;;;;8.70;99.90;;;;;;4997195;28;20275;-78
2023/02/04 02:00:26;;;;;;;;;;;8.60;99.90;;;;;;5011953;28;19910;-77
2023/02/04 02:02:53;;;;;;;;;;;8.60;99.90;;;;;;5011675;28;19910;-77
2023/02/04 02:05:39;;;;;;;;;;;8.50;99.90;;;;;;5005824;28;19917;-81
2023/02/04 02:08:06;;;;;;;;;;;8.50;99.90;;;;;;5007154;28;19917;-78
2023/02/04 02:10:33;;;;;;;;;;;8.50;99.90;;;;;;5007462;28;19913;-78
2023/02/04 02:12:59;;;;;;;;;;;8.50;99.90;;;;;;5008341;28;19910;-80
2023/02/04 02:15:26;;;;;;;;;;;8.50;99.90;;;;;;5011238;28;19905;-80
2023/02/04 02:17:53;;;;;;;;;;;8.40;99.90;;;;;;5007400;28;19914;-81
2023/02/04 02:20:20;;;;;;;;;;;8.40;99.90;;;;;;5007042;28;19916;-80
2023/02/04 02:23:05;;;;;;;;;;;8.40;99.90;;;;;;5006498;28;19917;-79
2023/02/04 02:25:31;;;;;;;;;;;8.30;99.90;;;;;;5004899;28;19969;-79
2023/02/04 02:27:59;;;;;;;;;;;8.30;99.90;;;;;;5015396;28;19998;-78
2023/02/04 02:30:26;;;;;;;;;;;8.20;99.90;;;;;;5007865;28;19906;-79
2023/02/04 02:32:53;;;;;;;;;;;8.20;99.90;;;;;;5010080;28;19917;-79
2023/02/04 02:35:19;;;;;;;;;;;8.20;99.90;;;;;;5006618;28;19917;-77
2023/02/04 02:37:45;;;;;;;;;;;8.20;99.90;;;;;;5005684;28;19925;-78
2023/02/04 02:40:12;;;;;;;;;;;8.20;99.90;;;;;;5008443;28;19910;-78
2023/02/04 02:42:38;;;;;;;;;;;8.20;99.90;;;;;;5006311;28;20248;-78
2023/02/04 02:45:07;;;;;;;;;;;8.10;99.90;;;;;;5010157;28;19923;-78
2023/02/04 02:47:33;;;;;;;;;;;8.10;99.90;;;;;;5003907;28;19909;-78
2023/02/04 02:49:59;;;;;;;;;;;8.10;99.90;;;;;;5011444;28;19910;-77
2023/02/04 02:52:25;;;;;;;;;;;8.00;99.90;;;;;;5003774;28;19909;-77
2023/02/04 02:54:52;;;;;;;;;;;8.00;99.90;;;;;;5010266;28;20272;-77
2023/02/04 02:57:19;;;;;;;;;;;8.00;99.90;;;;;;5008333;28;19909;-77
2023/02/04 02:59:45;;;;;;;;;;;8.00;99.90;;;;;;5008367;28;19909;-77
2023/02/04 03:02:12;;;;;;;;;;;7.90;1.00;;;;;;5010390;28;19918;-78
2023/02/04 03:04:44;;;;;;;;;;;7.90;1.00;;;;;;5009947;28;19917;-77
2023/02/04 03:07:11;;;;;;;;;;;7.90;1.00;;;;;;5007632;28;19917;-78
2023/02/04 03:09:37;;;;;;;;;;;7.90;99.90;;;;;;5007849;28;19914;-77
2023/02/04 03:12:04;;;;;;;;;;;7.90;1.00;;;;;;5009176;28;19905;-81
2023/02/04 03:14:30;;;;;;;;;;;7.90;1.00;;;;;;4999421;28;20369;-81
2023/02/04 03:16:57;;;;;;;;;;;7.90;99.90;;;;;;5005488;28;19923;-78
2023/02/04 03:19:24;;;;;;;;;;;7.90;99.90;;;;;;5010503;28;19993;-79
2023/02/04 03:21:50;;;;;;;;;;;7.90;1.00;;;;;;5024197;28;19925;-78
2023/02/04 03:24:16;;;;;;;;;;;7.80;1.00;;;;;;5012289;28;20343;-76
2023/02/04 03:26:43;;;;;;;;;;;7.80;1.00;;;;;;4988330;28;19909;-76
2023/02/04 03:29:10;;;;;;;;;;;7.80;1.00;;;;;;5012037;28;19917;-78
2023/02/04 03:31:37;;;;;;;;;;;7.80;1.00;;;;;;5012532;28;20374;-77
2023/02/04 03:34:03;;;;;;;;;;;7.70;1.00;;;;;;5008715;28;20287;-77
2023/02/04 03:36:29;;;;;;;;;;;7.70;1.00;;;;;;5010702;28;20267;-76
2023/02/04 03:38:55;;;;;;;;;;;7.70;1.00;;;;;;5011808;28;19909;-77
2023/02/04 03:41:21;;;;;;;;;;;7.70;1.00;;;;;;5011692;28;20315;-77
2023/02/04 03:43:47;;;;;;;;;;;7.60;1.00;;;;;;5012202;28;20374;-76
2023/02/04 03:46:13;;;;;;;;;;;7.60;1.00;;;;;;5010819;28;19956;-76
2023/02/04 03:48:39;;;;;;;;;;;7.60;1.00;;;;;;4995095;28;20008;-76
2023/02/04 03:51:05;;;;;;;;;;;7.60;1.00;;;;;;5000736;28;20414;-79
2023/02/04 03:53:31;;;;;;;;;;;7.60;1.00;;;;;;4999617;28;19910;-78
2023/02/04 03:55:57;;;;;;;;;;;7.60;1.00;;;;;;5012568;28;19909;-79
2023/02/04 03:58:24;;;;;;;;;;;7.50;1.00;;;;;;5008630;28;19910;-78
2023/02/04 04:00:50;;;;;;;;;;;7.50;1.00;;;;;;5013205;28;19940;-81
2023/02/04 04:03:16;;;;;;;;;;;7.50;1.00;;;;;;5008899;28;19909;-79
2023/02/04 04:05:42;;;;;;;;;;;7.50;1.00;;;;;;5011476;28;19964;-79
2023/02/04 04:08:08;;;;;;;;;;;7.50;1.00;;;;;;5013657;28;19963;-78
2023/02/04 04:10:34;;;;;;;;;;;7.50;1.00;;;;;;5010430;28;19909;-78
2023/02/04 04:13:00;;;;;;;;;;;7.40;1.00;;;;;;5019385;28;19907;-78
2023/02/04 04:15:26;;;;;;;;;;;7.50;1.00;;;;;;5015511;28;20020;-78
2023/02/04 04:17:52;;;;;;;;;;;7.40;1.00;;;;;;5008979;28;20294;-78
2023/02/04 04:20:18;;;;;;;;;;;7.40;1.00;;;;;;5011127;28;20417;-78
2023/02/04 04:22:44;;;;;;;;;;;7.30;1.00;;;;;;5009008;28;20361;-78
2023/02/04 04:25:10;;;;;;;;;;;7.30;1.00;;;;;;5011636;28;19913;-78
2023/02/04 04:27:36;;;;;;;;;;;7.30;1.00;;;;;;5009137;28;19913;-77
2023/02/04 04:30:02;;;;;;;;;;;7.30;1.00;;;;;;5012029;28;19948;-77
2023/02/04 04:32:28;;;;;;;;;;;7.30;1.00;;;;;;5006573;28;20239;-77
2023/02/04 04:34:54;;;;;;;;;;;7.30;1.00;;;;;;5010512;28;19920;-79
2023/02/04 04:37:20;;;;;;;;;;;7.30;1.00;;;;;;5010400;28;19906;-77
2023/02/04 04:39:46;;;;;;;;;;;7.30;1.00;;;;;;5011173;28;19957;-79
2023/02/04 04:42:12;;;;;;;;;;;7.30;1.00;;;;;;5011665;28;20274;-79
2023/02/04 04:44:38;;;;;;;;;;;7.30;1.00;;;;;;5006380;28;19968;-80
2023/02/04 04:47:04;;;;;;;;;;;7.30;1.00;;;;;;5012925;28;19909;-79
2023/02/04 04:49:30;;;;;;;;;;;7.20;1.00;;;;;;5014475;28;19940;-80
2023/02/04 04:51:56;;;;;;;;;;;7.20;1.00;;;;;;5010321;28;19922;-78
2023/02/04 04:54:22;;;;;;;;;;;7.20;1.00;;;;;;5010417;28;19948;-79
2023/02/04 04:56:48;;;;;;;;;;;7.10;1.00;;;;;;5006732;28;19912;-79
2023/02/04 04:59:14;;;;;;;;;;;7.10;1.00;;;;;;5012836;28;19910;-79
2023/02/04 05:01:40;;;;;;;;;;;7.10;1.00;;;;;;5008051;28;20295;-80
2023/02/04 05:04:06;;;;;;;;;;;7.00;1.00;;;;;;5010089;28;20299;-79
2023/02/04 05:06:32;;;;;;;;;;;7.00;1.00;;;;;;5010049;28;19921;-80
2023/02/04 05:08:58;;;;;;;;;;;7.00;1.00;;;;;;5018022;28;19969;-80
2023/02/04 05:11:24;;;;;;;;;;;7.00;1.00;;;;;;5010897;28;19910;-80
2023/02/04 05:13:50;;;;;;;;;;;7.00;1.00;;;;;;5002190;28;19905;-79
2023/02/04 05:16:17;;;;;;;;;;;6.90;1.00;;;;;;4994790;28;20363;-79
2023/02/04 05:18:43;;;;;;;;;;;6.90;1.00;;;;;;4999839;28;20298;-80
2023/02/04 05:21:09;;;;;;;;;;;7.00;1.00;;;;;;5012385;28;20283;-79
2023/02/04 05:23:35;;;;;;;;;;;6.90;1.00;;;;;;5009235;28;19916;-79
2023/02/04 05:26:01;;;;;;;;;;;6.90;1.00;;;;;;5010290;28;20000;-80
2023/02/04 05:28:27;;;;;;;;;;;6.90;1.00;;;;;;5007939;28;20347;-79
2023/02/04 05:30:53;;;;;;;;;;;6.80;1.00;;;;;;5005348;28;19949;-78
2023/02/04 05:33:19;;;;;;;;;;;6.80;1.00;;;;;;5004072;28;19959;-79
2023/02/04 05:35:45;;;;;;;;;;;6.70;1.00;;;;;;5005737;28;19909;-78
2023/02/04 05:38:11;;;;;;;;;;;6.80;1.00;;;;;;5009770;28;19939;-79
2023/02/04 05:40:37;;;;;;;;;;;6.70;1.00;;;;;;5007404;28;19920;-79
2023/02/04 05:43:03;;;;;;;;;;;6.60;1.00;;;;;;5010308;28;19909;-79
2023/02/04 05:45:29;;;;;;;;;;;6.60;1.00;;;;;;5010984;28;20295;-79
2023/02/04 05:47:55;;;;;;;;;;;6.50;1.00;;;;;;5001264;28;19913;-78
2023/02/04 05:50:21;;;;;;;;;;;6.50;1.00;;;;;;4995152;28;19925;-79
2023/02/04 05:52:47;;;;;;;;;;;6.50;1.00;;;;;;4998076;28;19909;-79
2023/02/04 05:55:13;;;;;;;;;;;6.50;1.00;;;;;;5008215;28;20359;-78
2023/02/04 05:57:39;;;;;;;;;;;6.40;1.00;;;;;;5011042;28;19909;-80
2023/02/04 06:00:06;;;;;;;;;;;6.40;1.00;;;;;;5006367;28;19910;-79
2023/02/04 06:02:37;;;;;;;;;;;6.40;1.00;;;;;;5007398;28;19929;-79
2023/02/04 06:05:04;;;;;;;;;;;6.30;1.00;;;;;;5007964;28;19964;-79
2023/02/04 06:07:30;;;;;;;;;;;6.30;1.00;;;;;;5007333;28;19913;-80
2023/02/04 06:09:56;;;;;;;;;;;6.30;1.00;;;;;;5009678;28;20397;-79
2023/02/04 06:12:21;;;;;;;;;;;6.30;1.00;;;;;;5007501;28;19909;-80
2023/02/04 06:14:47;;;;;;;;;;;6.20;1.00;;;;;;5009775;28;19910;-79
2023/02/04 06:17:13;;;;;;;;;;;6.20;1.00;;;;;;5000471;28;19914;-80
2023/02/04 06:19:39;;;;;;;;;;;6.20;1.00;;;;;;5010345;28;19905;-80
2023/02/04 06:22:05;;;;;;;;;;;6.20;1.00;;;;;;5006787;28;19917;-79
2023/02/04 06:24:31;;;;;;;;;;;6.20;1.00;;;;;;5011127;28;19910;-79
2023/02/04 06:26:57;;;;;;;;;;;6.20;1.00;;;;;;5018112;28;19914;-80
2023/02/04 06:29:23;;;;;;;;;;;6.10;1.00;;;;;;5014413;28;19909;-80
2023/02/04 06:31:49;;;;;;;;;;;6.10;1.00;;;;;;5008968;28;19916;-80
2023/02/04 06:34:15;;;;;;;;;;;6.00;1.00;;;;;;5010995;28;19917;-79
2023/02/04 06:36:41;;;;;;;;;;;6.00;1.00;;;;;;5008824;28;20051;-78
2023/02/04 06:39:07;;;;;;;;;;;6.00;1.00;;;;;;5009192;28;20004;-80
2023/02/04 06:41:33;;;;;;;;;;;6.00;1.00;;;;;;5007288;28;19965;-79
2023/02/04 06:43:59;;;;;;;;;;;6.00;1.00;;;;;;5009293;28;19910;-79
2023/02/04 06:46:25;;;;;;;;;;;6.00;1.00;;;;;;5006520;28;19968;-79
2023/02/04 06:48:51;;;;;;;;;;;6.00;1.00;;;;;;5008598;28;19936;-79
2023/02/04 06:51:19;;;;;;;;;;;6.00;1.00;;;;;;5006688;28;19920;-79
2023/02/04 06:53:45;;;;;;;;;;;6.00;1.00;;;;;;5005721;28;19909;-79
2023/02/04 06:56:11;;;;;;;;;;;6.00;1.00;;;;;;5009008;28;20000;-79
2023/02/04 06:58:37;;;;;;;;;;;6.00;1.00;;;;;;5006241;28;19952;-80
2023/02/04 07:01:05;;;;;;;;;;;6.00;1.00;;;;;;5011756;28;19924;-80
2023/02/04 07:03:31;;;;;;;;;;;6.10;1.00;;;;;;5010645;28;19910;-79
2023/02/04 07:05:57;;;;;;;;;;;6.00;1.00;;;;;;5013327;28;19922;-79
2023/02/04 07:08:23;;;;;;;;;;;6.00;1.00;;;;;;5012347;28;20281;-79
2023/02/04 07:10:50;;;;;;;;;;;6.00;1.00;;;;;;5004319;28;19928;-79
2023/02/04 07:13:16;;;;;;;;;;;6.10;1.00;;;;;;5011706;28;20012;-79
2023/02/04 07:15:42;;;;;;;;;;;6.10;1.00;;;;;;5012562;28;19915;-79
2023/02/04 07:18:08;;;;;;;;;;;6.10;1.00;;;;;;5014783;28;19920;-80
2023/02/04 07:20:34;;;;;;;;;;;6.20;1.00;;;;;;5013886;28;19909;-80
2023/02/04 07:23:00;;;;;;;;;;;6.20;1.00;;;;;;5010383;28;19964;-80
2023/02/04 07:25:26;;;;;;;;;;;6.20;1.00;;;;;;5012322;28;19960;-79
2023/02/04 07:27:52;;;;;;;;;;;6.20;1.00;;;;;;5010211;28;19913;-76
2023/02/04 07:30:18;;;;;;;;;;;6.20;1.00;;;;;;5013675;28;19913;-76
2023/02/04 07:32:43;;;;;;;;;;;6.30;1.00;;;;;;5015225;28;19917;-76
2023/02/04 07:35:11;;;;;;;;;;;6.30;1.00;;;;;;5011394;28;20355;-76
2023/02/04 07:37:37;;;;;;;;;;;6.40;1.00;;;;;;4989587;28;19909;-77
2023/02/04 07:40:03;;;;;;;;;;;6.40;1.00;;;;;;5010440;28;20773;-76
2023/02/04 07:42:29;;;;;;;;;;;6.40;1.00;;;;;;5011764;28;19916;-76
2023/02/04 07:45:04;;;;;;;;;;;6.50;1.00;;;;;;5011578;28;20365;-76
2023/02/04 07:47:30;;;;;;;;;;;6.50;1.00;;;;;;5012612;28;20290;-76
2023/02/04 07:49:56;;;;;;;;;;;6.60;1.00;;;;;;5016969;28;19917;-76
2023/02/04 07:52:22;;;;;;;;;;;6.60;1.00;;;;;;5019554;28;20323;-77
2023/02/04 07:54:48;;;;;;;;;;;6.70;1.00;;;;;;5021986;28;19920;-76
2023/02/04 07:57:14;;;;;;;;;;;6.70;1.00;;;;;;5024752;28;19977;-77
2023/02/04 07:59:40;;;;;;;;;;;6.80;1.00;;;;;;5027895;28;19932;-76
2023/02/04 08:02:06;;;;;;;;;;;6.90;1.00;;;;;;5028309;28;19984;-76
2023/02/04 08:04:32;;;;;;;;;;;6.80;1.00;;;;;;5035551;28;19909;-78
2023/02/04 08:06:58;;;;;;;;;;;6.80;1.00;;;;;;5033674;28;19916;-76
2023/02/04 08:09:26;;;;;;;;;;;6.90;1.00;;;;;;5036218;28;19983;-76
2023/02/04 08:11:52;;;;;;;;;;;6.80;1.00;;;;;;5034787;28;19923;-77
2023/02/04 08:14:18;;;;;;;;;;;6.80;1.00;;;;;;5034575;28;19901;-75
2023/02/04 08:16:44;;;;;;;;;;;6.90;1.00;;;;;;5032392;28;19964;-77
2023/02/04 08:19:10;;;;;;;;;;;6.90;1.00;;;;;;5031937;28;19909;-76
2023/02/04 08:21:36;;;;;;;;;;;7.00;1.00;;;;;;5032652;28;19902;-76
2023/02/04 08:24:02;;;;;;;;;;;7.00;1.00;;;;;;5030206;28;19939;-78
2023/02/04 08:26:28;;;;;;;;;;;7.10;1.00;;;;;;5034238;28;19980;-76
2023/02/04 08:28:53;;;;;;;;;;;7.20;1.00;;;;;;5036524;28;19929;-78
2023/02/04 08:31:19;;;;;;;;;;;7.20;1.00;;;;;;5035301;28;19898;-76
2023/02/04 08:33:45;;;;;;;;;;;7.30;1.00;;;;;;5034300;28;19914;-76
2023/02/04 08:36:11;;;;;;;;;;;7.30;1.00;;;;;;5034449;28;19901;-77
2023/02/04 08:38:39;;;;;;;;;;;7.30;1.00;;;;;;5033114;28;19943;-76
2023/02/04 08:41:05;;;;;;;;;;;7.40;1.00;;;;;;5023803;28;19920;-77
2023/02/04 08:43:31;;;;;;;;;;;7.40;1.00;;;;;;5015045;28;19913;-75
2023/02/04 08:45:57;;;;;;;;;;;7.50;99.90;;;;;;5010876;28;20395;-74
2023/02/04 08:48:23;;;;;;;;;;;7.60;99.90;;;;;;5009902;28;19909;-75
2023/02/04 08:50:49;;;;;;;;;;;7.70;99.90;;;;;;5009710;28;19941;-77
2023/02/04 08:53:15;;;;;;;;;;;7.70;99.90;;;;;;5008224;28;19931;-75
2023/02/04 08:55:41;;;;;;;;;;;7.80;99.90;;;;;;5008139;28;19956;-75
2023/02/04 08:58:07;;;;;;;;;;;7.80;99.90;;;;;;5010093;28;19912;-75
2023/02/04 09:00:33;;;;;;;;;;;7.80;99.90;;;;;;5008757;28;19964;-74
2023/02/04 09:02:59;;;;;;;;;;;7.70;99.90;;;;;;5007404;28;19910;-74
2023/02/04 09:05:24;;;;;;;;;;;7.60;99.90;;;;;;5008294;28;20436;-74
2023/02/04 09:07:50;;;;;;;;;;;7.70;99.90;;;;;;5009878;28;20346;-74
2023/02/04 09:10:16;;;;;;;;;;;7.80;99.90;;;;;;5010129;28;19971;-73
2023/02/04 09:12:42;;;;;;;;;;;7.70;99.90;;;;;;5009966;28;19909;-74
2023/02/04 09:15:09;;;;;;;;;;;7.90;99.90;;;;;;4992445;28;20407;-74
2023/02/04 09:17:36;;;;;;;;;;;8.00;99.90;;;;;;5007700;28;19917;-73
2023/02/04 09:20:02;;;;;;;;;;;7.90;99.90;;;;;;5009708;28;19910;-74
2023/02/04 09:22:28;;;;;;;;;;;8.00;99.90;;;;;;5010136;28;19914;-74
2023/02/04 09:24:55;;;;;;;;;;;8.00;99.90;;;;;;5008210;28;20413;-75
2023/02/04 09:27:21;;;;;;;;;;;8.10;99.90;;;;;;5010350;28;19921;-75
2023/02/04 09:29:46;;;;;;;;;;;8.10;99.90;;;;;;5008014;28;20039;-77
2023/02/04 09:32:12;;;;;;;;;;;8.20;99.90;;;;;;5015826;28;19912;-73
2023/02/04 09:34:38;;;;;;;;;;;8.10;99.90;;;;;;5009418;28;19916;-73
2023/02/04 09:37:04;;;;;;;;;;;8.00;99.90;;;;;;5009134;28;19952;-73
2023/02/04 09:39:30;;;;;;;;;;;8.10;99.90;;;;;;5009980;28;20434;-73
2023/02/04 09:41:57;;;;;;;;;;;8.20;99.90;;;;;;4994895;28;19916;-73
2023/02/04 09:44:25;;;;;;;;;;;8.40;99.90;;;;;;5010324;28;19913;-77
2023/02/04 09:46:52;;;;;;;;;;;8.50;99.90;;;;;;5008441;28;19913;-78
2023/02/04 09:49:18;;;;;;;;;;;8.60;99.90;;;;;;5012853;28;19913;-75
2023/02/04 09:51:45;;;;;;;;;;;8.70;99.90;;;;;;5009725;28;20362;-71
2023/02/04 09:54:15;;;;;;;;;;;8.80;99.90;;;;;;5012421;28;19917;-72
2023/02/04 09:56:42;;;;;;;;;;;8.70;99.90;;;;;;5009855;28;19910;-73
2023/02/04 09:59:11;;;;;;;;;;;8.50;99.90;;;;;;5008055;28;19924;-72
2023/02/04 10:01:37;;;;;;;;;;;8.40;99.90;;;;;;5006049;28;19921;-73
2023/02/04 10:04:04;;;;;;;;;;;8.30;99.90;;;;;;5005266;28;19919;-74
2023/02/04 10:06:30;;;;;;;;;;;8.50;99.90;;;;;;5007678;28;20274;-73
2023/02/04 10:08:56;;;;;;;;;;;8.50;99.90;;;;;;5009331;28;19910;-72
2023/02/04 10:11:24;;;;;;;;;;;8.70;99.90;;;;;;5011115;28;19910;-73
2023/02/04 10:13:52;;;;;;;;;;;8.70;99.90;;;;;;5005449;28;19909;-73
2023/02/04 10:16:28;;;;;;;;;;;8.70;99.90;;;;;;5009007;28;19909;-73
2023/02/04 10:19:06;;;;;;;;;;;8.80;99.90;;;;;;5008069;28;19916;-75
2023/02/04 10:21:35;;;;;;;;;;;9.00;99.90;;;;;;5000951;28;19914;-79
2023/02/04 10:24:03;;;;;;;;;;;9.20;99.90;;;;;;5008952;28;19905;-75
2023/02/04 10:26:30;;;;;;;;;;;8.90;99.90;;;;;;5010815;28;19913;-75
2023/02/04 10:29:03;;;;;;;;;;;9.00;99.90;;;;;;5008502;28;19917;-74
2023/02/04 10:31:29;;;;;;;;;;;9.00;99.90;;;;;;5014122;28;19920;-73
2023/02/04 10:34:21;;;;;;;;;;;9.10;99.90;;;;;;5005158;28;19910;-77
2023/02/04 10:36:51;;;;;;;;;;;9.10;99.90;;;;;;5008844;28;19913;-80
2023/02/04 10:39:19;;;;;;;;;;;9.10;99.90;;;;;;5008899;28;19910;-73
2023/02/04 10:41:46;;;;;;;;;;;9.20;99.90;;;;;;5005183;28;19910;-73
2023/02/04 10:44:13;;;;;;;;;;;9.20;99.90;;;;;;5003850;28;19917;-73
2023/02/04 10:46:39;;;;;;;;;;;9.20;99.90;;;;;;5014577;28;20286;-73
2023/02/04 10:49:18;;;;;;;;;;;9.20;99.90;;;;;;5010885;28;20005;-73
2023/02/04 10:51:44;;;;;;;;;;;9.10;99.90;;;;;;5012157;28;19913;-72
2023/02/04 10:54:31;;;;;;;;;;;8.90;99.90;;;;;;5002948;28;19916;-71
2023/02/04 10:57:13;;;;;;;;;;;8.80;99.90;;;;;;5000174;28;19913;-74
2023/02/04 10:59:39;;;;;;;;;;;8.80;99.90;;;;;;4998664;28;20266;-77
2023/02/04 11:02:24;;;;;;;;;;;8.80;99.90;;;;;;5001383;28;19918;-74
2023/02/04 11:04:50;;;;;;;;;;;8.80;99.90;;;;;;5008612;28;19909;-73
2023/02/04 11:07:16;;;;;;;;;;;8.70;99.90;;;;;;5012464;28;19987;-73
2023/02/04 11:09:42;;;;;;;;;;;8.80;99.90;;;;;;4997734;28;19921;-72
2023/02/04 11:12:21;;;;;;;;;;;8.80;99.90;;;;;;5012104;28;19916;-72
2023/02/04 11:14:54;;;;;;;;;;;8.70;99.90;;;;;;5011073;28;19913;-72
2023/02/04 11:17:21;;;;;;;;;;;8.50;99.90;;;;;;5013408;28;19917;-72
2023/02/04 11:19:49;;;;;;;;;;;8.60;99.90;;;;;;5020287;28;20493;-72
2023/02/04 11:22:22;;;;;;;;;;;8.70;99.90;;;;;;5007073;28;19913;-73
2023/02/04 11:24:49;;;;;;;;;;;8.80;99.90;;;;;;5014311;28;20351;-73
2023/02/04 11:27:36;;;;;;;;;;;8.90;99.90;;;;;;5010376;28;20306;-74
2023/02/04 11:30:20;;;;;;;;;;;9.00;99.90;;;;;;5009912;28;19914;-74
2023/02/04 11:32:59;;;;;;;;;;;9.20;99.90;;;;;;5010240;28;19909;-74
2023/02/04 11:35:29;;;;;;;;;;;9.50;99.90;;;;;;5011303;28;19909;-74
2023/02/04 11:37:56;;;;;;;;;;;9.70;99.90;;;;;;5011440;28;19917;-74
2023/02/04 11:40:22;;;;;;;;;;;9.90;99.90;;;;;;5011058;28;19924;-75
2023/02/04 11:42:48;;;;;;;;;;;9.90;99.90;;;;;;5003935;28;20317;-75
2023/02/04 11:45:15;;;;;;;;;;;9.90;99.90;;;;;;5013093;28;19913;-74
2023/02/04 11:47:42;;;;;;;;;;;10.10;99.90;;;;;;5008807;28;19913;-73
2023/02/04 11:50:23;;;;;;;;;;;10.20;99.90;;;;;;5011705;28;19910;-75
2023/02/04 11:52:50;;;;;;;;;;;10.00;99.90;;;;;;4996211;28;19917;-74
2023/02/04 11:55:18;;;;;;;;;;;10.00;99.90;;;;;;5008832;28;19910;-73
2023/02/04 11:57:44;;;;;;;;;;;9.90;99.90;;;;;;5011999;28;19910;-74
2023/02/04 12:00:15;;;;;;;;;;;10.10;99.90;;;;;;5010033;28;19930;-74
2023/02/04 12:02:44;;;;;;;;;;;10.10;99.90;;;;;;5008491;28;19932;-74
2023/02/04 12:05:14;;;;;;;;;;;10.00;99.90;;;;;;5011775;28;19909;-74
2023/02/04 12:07:40;;;;;;;;;;;9.90;99.90;;;;;;5008283;28;19914;-74
2023/02/04 12:10:15;;;;;;;;;;;9.60;99.90;;;;;;5013306;28;19942;-74
2023/02/04 12:12:48;;;;;;;;;;;9.60;99.90;;;;;;5008215;28;19913;-74
2023/02/04 12:15:15;;;;;;;;;;;9.40;99.90;;;;;;5011687;28;19909;-74
2023/02/04 12:17:45;;;;;;;;;;;9.50;99.90;;;;;;5011814;28;19910;-73
2023/02/04 12:20:14;;;;;;;;;;;9.50;99.90;;;;;;5009775;28;20359;-74
2023/02/04 12:22:40;;;;;;;;;;;9.40;99.90;;;;;;5009526;28;19940;-74
2023/02/04 12:25:06;;;;;;;;;;;9.40;99.90;;;;;;5010381;28;19999;-74
2023/02/04 12:27:32;;;;;;;;;;;9.40;99.90;;;;;;5011928;28;19920;-74
2023/02/04 12:29:58;;;;;;;;;;;9.40;99.90;;;;;;5010370;28;20366;-74
2023/02/04 12:32:24;;;;;;;;;;;9.30;99.90;;;;;;5009181;28;19962;-74
2023/02/04 12:34:50;;;;;;;;;;;9.30;99.90;;;;;;5012440;28;19920;-74
2023/02/04 12:37:16;;;;;;;;;;;9.30;99.90;;;;;;5008153;28;19910;-74
2023/02/04 12:39:42;;;;;;;;;;;9.30;99.90;;;;;;5011232;28;19917;-74
2023/02/04 12:42:08;;;;;;;;;;;9.30;99.90;;;;;;5009696;28;19952;-74
2023/02/04 12:44:34;;;;;;;;;;;9.30;99.90;;;;;;5008698;28;19948;-74
2023/02/04 12:47:00;;;;;;;;;;;9.30;99.90;;;;;;5010142;28;20306;-74
2023/02/04 12:49:26;;;;;;;;;;;9.40;99.90;;;;;;5008911;28;19923;-74
2023/02/04 12:51:52;;;;;;;;;;;9.80;99.90;;;;;;5006127;28;19918;-74
2023/02/04 12:54:18;;;;;;;;;;;10.00;99.90;;;;;;5005171;28;19936;-74
2023/02/04 12:56:44;;;;;;;;;;;10.20;99.90;;;;;;5010266;28;19905;-74
2023/02/04 12:59:10;;;;;;;;;;;10.30;99.90;;;;;;5008874;28;19909;-74
2023/02/04 13:01:36;;;;;;;;;;;10.10;99.90;;;;;;5011436;28;20024;-74
2023/02/04 13:04:02;;;;;;;;;;;10.30;99.90;;;;;;5009302;28;19909;-73
2023/02/04 13:06:29;;;;;;;;;;;10.40;99.90;;;;;;5010820;28;19913;-73
2023/02/04 13:08:55;;;;;;;;;;;10.30;99.90;;;;;;5012438;28;20255;-73
2023/02/04 13:11:21;;;;;;;;;;;9.90;99.90;;;;;;5017760;28;19952;-74
2023/02/04 13:13:47;;;;;;;;;;;9.70;99.90;;;;;;5009440;28;19917;-73
2023/02/04 13:16:13;;;;;;;;;;;9.60;99.90;;;;;;5010547;28;19975;-73
2023/02/04 13:18:39;;;;;;;;;;;9.60;99.90;;;;;;5008866;28;19906;-73
2023/02/04 13:21:05;;;;;;;;;;;9.50;99.90;;;;;;5006691;28;19914;-73
2023/02/04 13:23:31;;;;;;;;;;;9.40;99.90;;;;;;5007119;28;20350;-73
2023/02/04 13:25:57;;;;;;;;;;;9.20;99.90;;;;;;5011582;28;19916;-73
2023/02/04 13:28:23;;;;;;;;;;;9.20;99.90;;;;;;5008606;28;19921;-73
2023/02/04 13:30:49;;;;;;;;;;;9.20;99.90;;;;;;5010105;28;20286;-73
2023/02/04 13:33:15;;;;;;;;;;;9.20;99.90;;;;;;5007355;28;20000;-73
2023/02/04 13:35:41;;;;;;;;;;;9.10;99.90;;;;;;5008306;28;19906;-73
2023/02/04 13:38:07;;;;;;;;;;;9.10;99.90;;;;;;5010172;28;19920;-75
2023/02/04 13:40:33;;;;;;;;;;;8.90;99.90;;;;;;5011070;28;19905;-74
2023/02/04 13:42:59;;;;;;;;;;;8.90;99.90;;;;;;5008007;28;19916;-74
2023/02/04 13:45:25;;;;;;;;;;;9.00;99.90;;;;;;5015928;28;19910;-74
2023/02/04 13:47:51;;;;;;;;;;;9.20;99.90;;;;;;5006025;28;20012;-73
2023/02/04 13:50:17;;;;;;;;;;;9.30;99.90;;;;;;5012044;28;20378;-74
2023/02/04 13:52:43;;;;;;;;;;;9.30;99.90;;;;;;5009650;28;20236;-73
2023/02/04 13:55:09;;;;;;;;;;;9.20;99.90;;;;;;5011404;28;19909;-73
2023/02/04 13:57:36;;;;;;;;;;;9.10;99.90;;;;;;5007782;28;20367;-73
2023/02/04 14:00:03;;;;;;;;;;;9.10;99.90;;;;;;5009571;28;19932;-74
2023/02/04 14:02:38;;;;;;;;;;;9.10;99.90;;;;;;5014006;28;19921;-74
2023/02/04 14:05:04;;;;;;;;;;;9.10;99.90;;;;;;5008946;28;19924;-73
2023/02/04 14:07:32;;;;;;;;;;;9.20;99.90;;;;;;5011182;28;19909;-73
2023/02/04 14:09:58;;;;;;;;;;;9.10;99.90;;;;;;5007284;28;19921;-73
2023/02/04 14:12:24;;;;;;;;;;;9.10;99.90;;;;;;5007817;28;19921;-74
2023/02/04 14:14:50;;;;;;;;;;;9.20;99.90;;;;;;5002471;28;19910;-73
2023/02/04 14:17:16;;;;;;;;;;;9.20;99.90;;;;;;5007721;28;20040;-73
2023/02/04 14:19:42;;;;;;;;;;;9.10;99.90;;;;;;5009750;28;19940;-73
2023/02/04 14:22:09;;;;;;;;;;;9.00;99.90;;;;;;5006345;28;20345;-73
2023/02/04 14:24:37;;;;;;;;;;;8.90;99.90;;;;;;5017005;28;20278;-72
2023/02/04 14:27:06;;;;;;;;;;;8.90;99.90;;;;;;5009294;28;19920;-73
2023/02/04 14:29:32;;;;;;;;;;;8.90;99.90;;;;;;5010733;28;19913;-73
2023/02/04 14:31:58;;;;;;;;;;;8.90;99.90;;;;;;5008083;28;19910;-74
2023/02/04 14:34:24;;;;;;;;;;;9.00;99.90;;;;;;5007877;28;19927;-74